createdAt,value
2018-03-27T00:02:13.296Z,5.05
2018-03-27T00:04:42.836Z,5.03
2018-03-27T00:07:18.052Z,5.12
2018-03-27T00:09:47.616Z,4.89
2018-03-27T00:12:17.139Z,4.98
2018-03-27T00:14:47.033Z,4.86
2018-03-27T00:17:16.913Z,4.84
2018-03-27T00:22:27.094Z,4.82
2018-03-27T00:24:56.730Z,4.85
2018-03-27T00:27:36.780Z,4.69
2018-03-27T00:30:17.236Z,4.68
2018-03-27T00:32:57.266Z,4.60
2018-03-27T00:35:39.777Z,4.75
2018-03-27T00:38:19.904Z,4.48
2018-03-27T00:40:47.740Z,4.35
2018-03-27T00:43:17.288Z,4.35
2018-03-27T00:45:47.132Z,4.40
2018-03-27T00:48:16.738Z,4.48
2018-03-27T00:50:46.571Z,4.46
2018-03-27T00:53:16.093Z,4.42
2018-03-27T00:55:46.941Z,4.53
2018-03-27T00:58:16.524Z,4.53
2018-03-27T01:00:46.072Z,4.62
2018-03-27T01:03:15.759Z,4.54
2018-03-27T01:05:46.645Z,4.74
2018-03-27T01:08:16.332Z,4.66
2018-03-27T01:10:45.871Z,4.67
2018-03-27T01:13:15.496Z,4.63
2018-03-27T01:15:45.658Z,4.72
2018-03-27T01:18:15.221Z,4.75
2018-03-27T01:20:44.781Z,4.78
2018-03-27T01:23:14.323Z,4.80
2018-03-27T01:25:43.863Z,4.80
2018-03-27T01:28:13.445Z,4.74
2018-03-27T01:30:44.253Z,4.70
2018-03-27T01:33:13.900Z,4.59
2018-03-27T01:35:43.586Z,4.64
2018-03-27T01:38:13.130Z,4.57
2018-03-27T01:40:44.129Z,4.66
2018-03-27T01:43:13.805Z,4.61
2018-03-27T01:45:45.418Z,4.57
2018-03-27T01:48:15.104Z,4.57
2018-03-27T01:50:44.616Z,4.65
2018-03-27T01:53:14.128Z,4.56
2018-03-27T01:55:49.924Z,4.58
2018-03-27T01:58:19.479Z,4.41
2018-03-27T02:00:49.081Z,4.30
2018-03-27T02:03:18.615Z,4.29
2018-03-27T02:05:48.507Z,4.23
2018-03-27T02:08:18.138Z,4.21
2018-03-27T02:10:46.546Z,4.31
2018-03-27T02:13:20.916Z,4.28
2018-03-27T02:15:55.506Z,4.39
2018-03-27T02:21:09.072Z,4.33
2018-03-27T02:23:38.834Z,4.29
2018-03-27T02:26:08.413Z,4.34
2018-03-27T02:28:37.902Z,4.30
2018-03-27T02:31:07.470Z,4.18
2018-03-27T02:33:38.459Z,4.13
2018-03-27T02:36:07.968Z,4.15
2018-03-27T02:38:37.491Z,4.12
2018-03-27T02:41:07.054Z,4.06
2018-03-27T02:43:36.636Z,4.05
2018-03-27T02:46:06.288Z,3.99
2018-03-27T02:48:37.270Z,3.94
2018-03-27T02:51:06.952Z,4.01
2018-03-27T02:53:36.542Z,3.85
2018-03-27T02:56:06.107Z,3.91
2018-03-27T02:58:37.032Z,4.12
2018-03-27T03:01:06.715Z,4.12
2018-03-27T03:03:36.362Z,3.98
2018-03-27T03:06:05.866Z,4.11
2018-03-27T03:08:36.801Z,4.05
2018-03-27T03:11:06.417Z,3.85
2018-03-27T03:13:35.978Z,3.73
2018-03-27T03:16:05.502Z,3.60
2018-03-27T03:18:35.113Z,3.60
2018-03-27T03:21:04.780Z,3.44
2018-03-27T03:23:35.689Z,3.34
2018-03-27T03:26:05.356Z,3.28
2018-03-27T03:28:34.999Z,3.29
2018-03-27T03:31:04.548Z,3.20
2018-03-27T03:33:34.120Z,3.26
2018-03-27T03:36:03.719Z,3.13
2018-03-27T03:38:34.742Z,3.05
2018-03-27T03:41:04.257Z,2.98
2018-03-27T03:43:33.830Z,2.87
2018-03-27T03:46:03.418Z,2.91
2018-03-27T03:48:33.388Z,2.83
2018-03-27T03:51:02.968Z,2.81
2018-03-27T03:53:32.569Z,2.66
2018-03-27T03:56:02.147Z,2.71
2018-03-27T03:58:31.656Z,2.58
2018-03-27T04:01:01.270Z,2.62
2018-03-27T04:03:31.223Z,2.49
2018-03-27T04:06:00.838Z,2.49
2018-03-27T04:08:30.442Z,2.33
2018-03-27T04:11:00.034Z,2.37
2018-03-27T04:13:30.004Z,2.28
2018-03-27T04:15:59.554Z,2.22
2018-03-27T04:18:29.206Z,2.33
2018-03-27T04:20:58.855Z,2.28
2018-03-27T04:23:28.796Z,2.33
2018-03-27T04:25:58.400Z,2.25
2018-03-27T04:28:28.041Z,2.28
2018-03-27T04:30:57.624Z,2.25
2018-03-27T04:33:29.494Z,2.16
2018-03-27T04:35:59.065Z,2.22
2018-03-27T04:38:28.980Z,2.10
2018-03-27T04:40:58.706Z,2.11
2018-03-27T04:43:28.525Z,2.08
2018-03-27T04:45:58.041Z,1.97
2018-03-27T04:48:27.900Z,2.08
2018-03-27T04:50:57.760Z,2.12
2018-03-27T04:53:27.311Z,2.10
2018-03-27T04:55:56.853Z,2.03
2018-03-27T04:58:26.354Z,2.15
2018-03-27T05:00:55.889Z,2.05
2018-03-27T05:03:25.537Z,2.16
2018-03-27T05:05:56.441Z,2.05
2018-03-27T05:08:26.273Z,2.08
2018-03-27T05:14:01.280Z,2.13
2018-03-27T05:16:30.962Z,2.07
2018-03-27T05:19:00.790Z,2.09
2018-03-27T05:21:30.431Z,2.23
2018-03-27T05:24:00.029Z,2.27
2018-03-27T05:26:29.807Z,2.18
2018-03-27T05:28:59.525Z,2.20
2018-03-27T05:31:29.080Z,2.21
2018-03-27T05:33:58.643Z,2.17
2018-03-27T05:36:28.326Z,2.29
2018-03-27T05:38:59.361Z,2.43
2018-03-27T05:41:28.885Z,2.55
2018-03-27T05:43:58.424Z,2.45
2018-03-27T05:46:28.528Z,2.50
2018-03-27T05:48:58.133Z,2.48
2018-03-27T05:51:28.661Z,2.47
2018-03-27T05:53:58.489Z,2.49
2018-03-27T05:56:28.045Z,2.55
2018-03-27T05:58:58.169Z,2.59
2018-03-27T06:01:28.022Z,2.71
2018-03-27T06:03:57.618Z,2.62
2018-03-27T06:06:27.321Z,2.64
2018-03-27T06:08:58.289Z,2.72
2018-03-27T06:11:28.061Z,2.79
2018-03-27T06:13:57.640Z,2.89
2018-03-27T06:16:27.420Z,2.90
2018-03-27T06:18:57.469Z,2.88
2018-03-27T06:21:27.435Z,2.86
2018-03-27T06:23:58.034Z,2.92
2018-03-27T06:26:27.630Z,3.10
2018-03-27T06:28:57.208Z,3.15
2018-03-27T06:31:27.066Z,3.35
2018-03-27T06:34:02.009Z,3.50
2018-03-27T06:36:31.648Z,3.34
2018-03-27T06:39:01.209Z,3.48
2018-03-27T06:41:31.044Z,3.49
2018-03-27T06:44:01.165Z,3.63
2018-03-27T06:46:30.806Z,3.80
2018-03-27T06:49:00.430Z,3.92
2018-03-27T06:51:31.402Z,3.86
2018-03-27T06:54:02.869Z,4.05
2018-03-27T06:56:32.635Z,4.17
2018-03-27T06:59:02.358Z,4.33
2018-03-27T07:01:31.834Z,4.67
2018-03-27T07:04:01.721Z,4.76
2018-03-27T07:06:31.271Z,5.01
2018-03-27T07:09:00.956Z,5.47
2018-03-27T07:11:30.749Z,5.81
2018-03-27T07:14:00.265Z,6.08
2018-03-27T07:16:29.996Z,6.32
2018-03-27T07:19:01.377Z,6.39
2018-03-27T07:21:30.917Z,6.49
2018-03-27T07:24:00.504Z,6.69
2018-03-27T07:26:31.544Z,6.88
2018-03-27T07:29:01.123Z,7.07
2018-03-27T07:31:30.654Z,7.31
2018-03-27T07:34:01.549Z,7.34
2018-03-27T07:36:31.210Z,7.35
2018-03-27T07:39:00.841Z,7.83
2018-03-27T07:41:30.685Z,7.82
2018-03-27T07:44:00.244Z,7.81
2018-03-27T07:46:29.789Z,8.83
2018-03-27T07:49:01.941Z,9.90
2018-03-27T07:51:31.482Z,9.49
2018-03-27T07:54:01.265Z,9.96
2018-03-27T07:56:31.418Z,9.87
2018-03-27T07:59:01.900Z,9.49
2018-03-27T08:01:31.528Z,10.22
2018-03-27T08:04:01.469Z,9.98
2018-03-27T08:06:31.283Z,10.37
2018-03-27T08:09:00.907Z,10.87
2018-03-27T08:11:30.790Z,10.33
2018-03-27T08:14:00.867Z,10.98
2018-03-27T08:16:30.505Z,10.90
2018-03-27T08:19:00.578Z,10.48
2018-03-27T08:21:30.150Z,11.28
2018-03-27T08:23:59.870Z,11.02
2018-03-27T08:26:30.036Z,10.93
2018-03-27T08:28:59.703Z,11.75
2018-03-27T08:31:29.290Z,12.64
2018-03-27T08:33:59.158Z,12.46
2018-03-27T08:36:29.018Z,11.47
2018-03-27T08:38:58.683Z,11.18
2018-03-27T08:41:28.496Z,10.82
2018-03-27T08:43:59.607Z,11.18
2018-03-27T08:46:29.462Z,11.74
2018-03-27T08:48:59.772Z,11.32
2018-03-27T08:51:29.414Z,12.62
2018-03-27T08:53:58.983Z,12.52
2018-03-27T08:56:31.099Z,12.53
2018-03-27T08:59:00.753Z,12.95
2018-03-27T09:01:30.386Z,13.50
2018-03-27T09:04:01.250Z,13.91
2018-03-27T09:06:30.984Z,12.88
2018-03-27T09:09:00.709Z,12.62
2018-03-27T09:11:30.567Z,13.15
2018-03-27T09:14:00.095Z,12.46
2018-03-27T09:16:29.935Z,12.25
2018-03-27T09:18:59.871Z,11.78
2018-03-27T09:21:29.801Z,12.24
2018-03-27T09:23:59.403Z,11.33
2018-03-27T09:26:29.446Z,11.90
2018-03-27T09:28:59.264Z,11.79
2018-03-27T09:31:28.839Z,12.61
2018-03-27T09:33:59.691Z,13.04
2018-03-27T09:36:29.313Z,12.79
2018-03-27T09:38:59.557Z,12.68
2018-03-27T09:41:29.681Z,12.64
2018-03-27T09:43:59.503Z,11.99
2018-03-27T09:46:29.176Z,12.74
2018-03-27T09:49:02.849Z,13.85
2018-03-27T09:51:32.488Z,14.18
2018-03-27T09:54:02.079Z,14.33
2018-03-27T09:56:31.717Z,14.35
2018-03-27T09:59:01.491Z,14.94
2018-03-27T10:01:31.226Z,14.65
2018-03-27T10:04:04.398Z,15.09
2018-03-27T10:06:33.986Z,14.73
2018-03-27T10:09:03.538Z,14.37
2018-03-27T10:11:33.651Z,14.20
2018-03-27T10:14:03.174Z,15.03
2018-03-27T10:16:32.849Z,15.49
2018-03-27T10:19:04.834Z,14.55
2018-03-27T10:21:34.435Z,14.18
2018-03-27T10:24:04.006Z,13.52
2018-03-27T10:26:33.981Z,13.38
2018-03-27T10:29:03.693Z,12.47
2018-03-27T10:31:33.472Z,12.56
2018-03-27T10:34:03.624Z,12.16
2018-03-27T10:36:34.260Z,12.32
2018-03-27T10:39:04.112Z,11.91
2018-03-27T10:41:33.911Z,11.98
2018-03-27T10:44:03.479Z,11.67
2018-03-27T10:46:33.151Z,11.54
2018-03-27T10:49:05.084Z,11.39
2018-03-27T10:51:34.767Z,11.67
2018-03-27T10:54:04.559Z,11.37
2018-03-27T10:56:34.690Z,11.48
2018-03-27T10:59:05.160Z,11.30
2018-03-27T11:01:34.691Z,11.18
2018-03-27T11:08:36.332Z,10.72
2018-03-27T11:11:07.471Z,10.58
2018-03-27T11:13:38.295Z,10.70
2018-03-27T11:16:10.264Z,10.60
2018-03-27T11:18:41.028Z,10.77
2018-03-27T11:21:11.679Z,10.61
2018-03-27T11:23:42.635Z,10.71
2018-03-27T11:26:13.304Z,10.37
2018-03-27T11:28:44.225Z,10.59
2018-03-27T11:31:16.322Z,10.60
2018-03-27T11:33:47.134Z,10.62
2018-03-27T11:36:18.204Z,10.48
2018-03-27T11:38:52.904Z,10.69
2018-03-27T11:41:24.388Z,10.68
2018-03-27T11:43:55.211Z,10.65
2018-03-27T11:46:27.555Z,10.72
2018-03-27T11:48:58.384Z,11.03
2018-03-27T11:51:29.274Z,11.35
2018-03-27T11:54:02.513Z,11.49
2018-03-27T11:56:33.359Z,11.49
2018-03-27T11:59:04.158Z,11.36
2018-03-27T12:01:35.412Z,10.89
2018-03-27T12:04:06.259Z,10.80
2018-03-27T12:06:37.025Z,10.88
2018-03-27T12:09:08.273Z,10.97
2018-03-27T12:11:38.999Z,11.04
2018-03-27T12:14:09.745Z,11.04
2018-03-27T12:16:40.412Z,11.43
2018-03-27T12:19:10.991Z,11.68
2018-03-27T12:21:42.090Z,12.09
2018-03-27T12:24:12.712Z,12.17
2018-03-27T12:26:43.522Z,12.51
2018-03-27T12:29:14.520Z,12.40
2018-03-27T12:31:45.405Z,12.74
2018-03-27T12:34:16.063Z,12.29
2018-03-27T12:36:47.128Z,12.30
2018-03-27T12:39:18.395Z,12.46
2018-03-27T12:41:50.428Z,12.72
2018-03-27T12:44:21.016Z,12.80
2018-03-27T12:46:51.611Z,12.92
2018-03-27T12:49:22.637Z,12.62
2018-03-27T12:51:53.273Z,12.63
2018-03-27T12:54:24.037Z,12.88
2018-03-27T12:56:57.195Z,12.89
2018-03-27T12:59:28.111Z,13.07
2018-03-27T13:01:58.709Z,12.82
2018-03-27T13:04:29.848Z,12.63
2018-03-27T13:07:00.683Z,13.32
2018-03-27T13:09:31.535Z,13.25
2018-03-27T13:12:02.666Z,13.73
2018-03-27T13:14:35.400Z,14.34
2018-03-27T13:17:06.237Z,13.37
2018-03-27T13:19:37.446Z,13.27
2018-03-27T13:22:08.215Z,13.59
2018-03-27T13:24:38.993Z,13.91
2018-03-27T13:27:09.678Z,13.76
2018-03-27T13:29:41.120Z,12.98
2018-03-27T13:32:12.163Z,12.75
2018-03-27T13:34:42.963Z,12.73
2018-03-27T13:37:13.750Z,12.68
2018-03-27T13:39:44.874Z,13.04
2018-03-27T13:42:15.467Z,13.25
2018-03-27T13:44:46.006Z,12.92
2018-03-27T13:47:17.115Z,12.91
2018-03-27T13:49:48.561Z,12.55
2018-03-27T13:52:19.359Z,12.47
2018-03-27T13:54:50.092Z,12.67
2018-03-27T13:57:20.843Z,12.53
2018-03-27T13:59:52.338Z,12.63
2018-03-27T14:02:23.228Z,12.46
2018-03-27T14:04:53.920Z,12.67
2018-03-27T14:07:25.064Z,12.88
2018-03-27T14:09:55.772Z,13.57
2018-03-27T14:12:28.742Z,14.83
2018-03-27T14:14:59.442Z,14.89
2018-03-27T14:17:30.235Z,14.10
2018-03-27T14:20:01.924Z,14.34
2018-03-27T14:22:33.039Z,13.90
2018-03-27T14:25:04.026Z,13.73
2018-03-27T14:27:35.634Z,14.99
2018-03-27T14:32:27.834Z,14.56
2018-03-27T14:34:56.547Z,13.90
2018-03-27T14:37:25.261Z,13.37
2018-03-27T14:39:54.439Z,13.03
2018-03-27T14:42:23.266Z,13.09
2018-03-27T14:44:53.162Z,13.12
2018-03-27T14:47:22.243Z,12.85
2018-03-27T14:49:54.280Z,12.87
2018-03-27T14:52:24.299Z,12.90
2018-03-27T14:54:53.984Z,13.02
2018-03-27T14:57:22.621Z,13.10
2018-03-27T14:59:51.489Z,13.49
2018-03-27T15:02:21.187Z,13.69
2018-03-27T15:04:49.892Z,13.34
2018-03-27T15:07:21.102Z,13.09
2018-03-27T15:09:50.361Z,12.77
2018-03-27T15:12:18.909Z,12.50
2018-03-27T15:14:47.562Z,12.41
2018-03-27T15:17:16.928Z,12.29
2018-03-27T15:19:45.594Z,12.31
2018-03-27T15:22:14.692Z,12.20
2018-03-27T15:24:44.742Z,12.10
2018-03-27T15:27:13.285Z,12.11
2018-03-27T15:29:42.204Z,12.07
2018-03-27T15:32:11.993Z,12.12
2018-03-27T15:34:40.649Z,12.25
2018-03-27T15:37:10.804Z,12.48
2018-03-27T15:39:39.746Z,12.68
2018-03-27T15:42:08.290Z,12.83
2018-03-27T15:44:37.134Z,12.75
2018-03-27T15:47:08.275Z,12.54
2018-03-27T15:49:37.642Z,12.53
2018-03-27T15:52:06.706Z,12.34
2018-03-27T15:54:36.902Z,12.26
2018-03-27T15:57:05.880Z,12.20
2018-03-27T15:59:34.631Z,12.21
2018-03-27T16:02:03.280Z,12.13
2018-03-27T16:04:32.077Z,11.92
2018-03-27T16:07:01.151Z,12.04
2018-03-27T16:09:30.119Z,11.93
2018-03-27T16:11:59.182Z,11.86
2018-03-27T16:14:28.358Z,11.93
2018-03-27T16:16:57.794Z,11.88
2018-03-27T16:19:26.591Z,11.86
2018-03-27T16:21:55.200Z,11.77
2018-03-27T16:24:24.008Z,11.74
2018-03-27T16:26:55.707Z,11.70
2018-03-27T16:29:24.792Z,11.62
2018-03-27T16:31:53.868Z,11.67
2018-03-27T16:34:22.602Z,11.67
2018-03-27T16:36:52.674Z,11.60
2018-03-27T16:39:21.394Z,11.46
2018-03-27T16:41:49.982Z,11.45
2018-03-27T16:44:18.755Z,11.35
2018-03-27T16:46:47.320Z,11.43
2018-03-27T16:49:17.567Z,11.57
2018-03-27T16:51:46.469Z,11.59
2018-03-27T16:54:15.254Z,11.39
2018-03-27T16:56:45.306Z,11.33
2018-03-27T16:59:14.254Z,11.43
2018-03-27T17:01:43.126Z,11.46
2018-03-27T17:04:11.784Z,11.34
2018-03-27T17:06:40.423Z,11.29
2018-03-27T17:09:09.006Z,11.21
2018-03-27T17:11:37.988Z,11.17
2018-03-27T17:14:07.473Z,11.14
2018-03-27T17:16:36.130Z,11.15
2018-03-27T17:19:04.715Z,11.23
2018-03-27T17:21:33.423Z,11.13
2018-03-27T17:24:02.078Z,11.10
2018-03-27T17:26:30.622Z,11.04
2018-03-27T17:29:00.073Z,10.96
2018-03-27T17:31:28.862Z,10.84
2018-03-27T17:33:59.139Z,10.91
2018-03-27T17:36:27.951Z,10.95
2018-03-27T17:38:56.663Z,10.77
2018-03-27T17:41:25.282Z,10.67
2018-03-27T17:43:53.940Z,10.58
2018-03-27T17:46:22.575Z,10.54
2018-03-27T17:48:51.592Z,10.61
2018-03-27T17:51:20.182Z,10.46
2018-03-27T17:53:48.863Z,10.36
2018-03-27T17:56:17.902Z,10.44
2018-03-27T17:58:47.780Z,10.43
2018-03-27T18:01:16.439Z,10.31
2018-03-27T18:03:45.384Z,10.31
2018-03-27T18:06:14.093Z,10.20
2018-03-27T18:08:42.857Z,10.08
2018-03-27T18:11:11.586Z,10.04
2018-03-27T18:13:40.725Z,9.64
2018-03-27T18:16:09.602Z,9.39
2018-03-27T18:18:38.338Z,9.10
2018-03-27T18:21:06.964Z,9.00
2018-03-27T18:23:37.880Z,8.95
2018-03-27T18:26:06.572Z,8.87
2018-03-27T18:28:35.182Z,8.84
2018-03-27T18:31:04.578Z,8.78
2018-03-27T18:33:33.594Z,8.72
2018-03-27T18:36:02.346Z,8.64
2018-03-27T18:38:30.966Z,8.58
2018-03-27T18:40:59.925Z,8.50
2018-03-27T18:43:28.470Z,8.35
2018-03-27T18:45:57.242Z,8.29
2018-03-27T18:48:25.941Z,8.22
2018-03-27T18:50:54.875Z,8.22
2018-03-27T18:53:23.635Z,8.15
2018-03-27T18:55:52.915Z,8.15
2018-03-27T18:58:22.268Z,8.15
2018-03-27T19:00:51.478Z,8.07
2018-03-27T19:03:20.399Z,8.01
2018-03-27T19:05:49.254Z,8.06
2018-03-27T19:08:17.948Z,8.07
2018-03-27T19:10:48.883Z,8.03
2018-03-27T19:13:17.467Z,8.05
2018-03-27T19:15:46.009Z,8.22
2018-03-27T19:18:14.741Z,8.18
2018-03-27T19:20:44.047Z,7.97
2018-03-27T19:23:14.312Z,7.98
2018-03-27T19:25:43.346Z,7.99
2018-03-27T19:28:11.976Z,8.05
2018-03-27T19:30:40.504Z,8.16
2018-03-27T19:33:09.305Z,8.17
2018-03-27T19:35:38.257Z,8.11
2018-03-27T19:38:08.112Z,8.26
2018-03-27T19:40:37.263Z,8.25
2018-03-27T19:43:05.982Z,8.16
2018-03-27T19:45:35.571Z,8.14
2018-03-27T19:48:05.010Z,8.06
2018-03-27T19:50:34.426Z,8.05
2018-03-27T19:53:04.241Z,7.96
2018-03-27T19:55:33.214Z,8.00
2018-03-27T19:58:02.676Z,8.14
2018-03-27T20:00:32.106Z,8.15
2018-03-27T20:03:02.160Z,8.12
2018-03-27T20:05:30.752Z,8.16
2018-03-27T20:07:59.709Z,8.06
2018-03-27T20:10:28.325Z,8.24
2018-03-27T20:12:57.045Z,8.03
2018-03-27T20:15:26.351Z,7.95
2018-03-27T20:17:55.325Z,7.99
2018-03-27T20:20:24.034Z,8.00
2018-03-27T20:22:53.895Z,8.03
2018-03-27T20:25:22.730Z,7.97
2018-03-27T20:27:51.399Z,8.01
2018-03-27T20:30:20.204Z,7.91
2018-03-27T20:32:49.313Z,8.00
2018-03-27T20:35:18.032Z,8.00
2018-03-27T20:37:46.792Z,8.02
2018-03-27T20:40:15.476Z,8.04
2018-03-27T20:42:44.495Z,8.17
2018-03-27T20:45:13.208Z,8.13
2018-03-27T20:47:42.223Z,8.08
2018-03-27T20:50:10.841Z,8.14
2018-03-27T20:52:39.727Z,8.24
2018-03-27T20:55:09.689Z,8.20
2018-03-27T20:57:38.209Z,8.05
2018-03-27T21:00:07.796Z,8.19
2018-03-27T21:02:36.494Z,8.16
2018-03-27T21:05:06.327Z,8.12
2018-03-27T21:07:35.318Z,8.10
2018-03-27T21:10:04.118Z,8.15
2018-03-27T21:12:33.331Z,8.26
2018-03-27T21:15:01.924Z,8.07
2018-03-27T21:17:30.533Z,8.08
2018-03-27T21:19:59.168Z,8.21
2018-03-27T21:22:29.034Z,8.11
2018-03-27T21:24:58.010Z,8.07
2018-03-27T21:27:26.626Z,8.19
2018-03-27T21:29:55.431Z,8.11
2018-03-27T21:32:24.951Z,7.94
2018-03-27T21:34:54.635Z,8.11
2018-03-27T21:37:23.570Z,7.93
2018-03-27T21:39:52.657Z,7.97
2018-03-27T21:42:21.277Z,7.91
2018-03-27T21:44:50.241Z,7.75
2018-03-27T21:47:19.041Z,7.56
2018-03-27T21:49:51.939Z,7.52
2018-03-27T21:52:20.506Z,7.38
2018-03-27T21:54:49.148Z,7.36
2018-03-27T21:57:17.925Z,7.22
2018-03-27T21:59:46.537Z,7.35
2018-03-27T22:02:15.515Z,7.17
2018-03-27T22:04:49.185Z,7.31
2018-03-27T22:07:18.725Z,7.30
2018-03-27T22:09:47.266Z,7.24
2018-03-27T22:12:16.769Z,7.11
2018-03-27T22:14:46.773Z,7.26
2018-03-27T22:17:15.430Z,6.99
2018-03-27T22:19:44.305Z,7.11
2018-03-27T22:22:13.169Z,7.13
2018-03-27T22:24:41.821Z,7.09
2018-03-27T22:27:10.430Z,7.16
2018-03-27T22:29:39.442Z,7.17
2018-03-27T22:32:08.239Z,7.12
2018-03-27T22:34:37.122Z,7.11
2018-03-27T22:37:06.048Z,7.24
2018-03-27T22:39:36.943Z,7.23
2018-03-27T22:42:05.592Z,7.32
2018-03-27T22:44:34.215Z,7.40
2018-03-27T22:47:02.985Z,7.39
2018-03-27T22:49:33.120Z,7.38
2018-03-27T22:52:01.798Z,7.29
2018-03-27T22:54:30.499Z,7.21
2018-03-27T22:56:59.378Z,7.20
2018-03-27T22:59:28.308Z,7.21
2018-03-27T23:01:56.931Z,7.23
2018-03-27T23:04:25.611Z,7.23
2018-03-27T23:06:54.377Z,7.25
2018-03-27T23:09:23.653Z,7.26
2018-03-27T23:11:52.258Z,7.18
2018-03-27T23:14:20.852Z,7.20
2018-03-27T23:16:49.469Z,7.16
2018-03-27T23:19:18.147Z,7.25
2018-03-27T23:21:46.774Z,7.23
2018-03-27T23:24:15.820Z,7.38
2018-03-27T23:26:44.898Z,7.43
2018-03-27T23:29:13.604Z,7.33
2018-03-27T23:31:44.500Z,7.32
2018-03-27T23:34:18.576Z,7.22
2018-03-27T23:36:47.612Z,7.22
2018-03-27T23:39:16.534Z,7.25
2018-03-27T23:41:45.190Z,7.11
2018-03-27T23:44:14.497Z,7.09
2018-03-27T23:46:43.110Z,7.07
2018-03-27T23:49:12.341Z,7.08
2018-03-27T23:51:41.797Z,7.10
2018-03-27T23:54:13.988Z,7.18
2018-03-27T23:56:44.688Z,7.25
2018-03-27T23:59:13.530Z,7.27
